sensor_id;sensor_type;location;lat;lon;timestamp;P1;durP1;ratioP1;P2;durP2;ratioP2
357;SDS011;167;47.558;7.602;2023-05-07T00:01:40;3.90;;;3.60;;
357;SDS011;167;47.558;7.602;2023-05-07T00:04:06;4.87;;;4.47;;
357;SDS011;167;47.558;7.602;2023-05-07T00:06:32;4.80;;;4.40;;
357;SDS011;167;47.558;7.602;2023-05-07T00:08:58;5.00;;;4.60;;
357;SDS011;167;47.558;7.602;2023-05-07T00:11:25;4.50;;;4.20;;
357;SDS011;167;47.558;7.602;2023-05-07T00:13:51;4.97;;;4.30;;
357;SDS011;167;47.558;7.602;2023-05-07T00:16:17;4.07;;;3.77;;
357;SDS011;167;47.558;7.602;2023-05-07T00:18:43;4.80;;;4.50;;
357;SDS011;167;47.558;7.602;2023-05-07T00:21:10;4.30;;;4.10;;
357;SDS011;167;47.558;7.602;2023-05-07T00:23:36;4.23;;;3.80;;
357;SDS011;167;47.558;7.602;2023-05-07T00:26:02;4.77;;;4.47;;
357;SDS011;167;47.558;7.602;2023-05-07T00:28:28;3.93;;;3.73;;
357;SDS011;167;47.558;7.602;2023-05-07T00:30:54;5.40;;;4.37;;
357;SDS011;167;47.558;7.602;2023-05-07T00:33:20;4.60;;;4.30;;
357;SDS011;167;47.558;7.602;2023-05-07T00:35:47;4.63;;;4.37;;
357;SDS011;167;47.558;7.602;2023-05-07T00:38:13;4.60;;;4.20;;
357;SDS011;167;47.558;7.602;2023-05-07T00:40:39;5.60;;;4.70;;
357;SDS011;167;47.558;7.602;2023-05-07T00:43:05;4.80;;;4.50;;
357;SDS011;167;47.558;7.602;2023-05-07T00:45:33;4.37;;;4.07;;
357;SDS011;167;47.558;7.602;2023-05-07T00:48:00;4.93;;;4.53;;
357;SDS011;167;47.558;7.602;2023-05-07T00:50:28;5.13;;;4.13;;
357;SDS011;167;47.558;7.602;2023-05-07T00:52:55;4.97;;;4.67;;
357;SDS011;167;47.558;7.602;2023-05-07T00:55:22;4.00;;;3.80;;
357;SDS011;167;47.558;7.602;2023-05-07T00:57:48;5.47;;;4.90;;
357;SDS011;167;47.558;7.602;2023-05-07T01:00:15;4.93;;;4.50;;
357;SDS011;167;47.558;7.602;2023-05-07T01:02:41;4.80;;;4.30;;
357;SDS011;167;47.558;7.602;2023-05-07T01:05:08;4.80;;;4.40;;
357;SDS011;167;47.558;7.602;2023-05-07T01:07:34;4.40;;;4.10;;
357;SDS011;167;47.558;7.602;2023-05-07T01:10:01;4.67;;;4.27;;
357;SDS011;167;47.558;7.602;2023-05-07T01:12:28;3.57;;;3.37;;
357;SDS011;167;47.558;7.602;2023-05-07T01:14:54;4.20;;;4.00;;
357;SDS011;167;47.558;7.602;2023-05-07T01:17:20;3.93;;;3.63;;
357;SDS011;167;47.558;7.602;2023-05-07T01:19:46;4.20;;;3.80;;
357;SDS011;167;47.558;7.602;2023-05-07T01:22:13;4.57;;;4.23;;
357;SDS011;167;47.558;7.602;2023-05-07T01:24:41;3.73;;;3.50;;
357;SDS011;167;47.558;7.602;2023-05-07T01:27:07;4.73;;;4.33;;
357;SDS011;167;47.558;7.602;2023-05-07T01:29:33;5.40;;;5.10;;
357;SDS011;167;47.558;7.602;2023-05-07T01:32:00;3.83;;;3.53;;
357;SDS011;167;47.558;7.602;2023-05-07T01:34:30;4.50;;;4.20;;
357;SDS011;167;47.558;7.602;2023-05-07T01:36:57;4.20;;;3.90;;
357;SDS011;167;47.558;7.602;2023-05-07T01:39:24;4.23;;;3.93;;
357;SDS011;167;47.558;7.602;2023-05-07T01:41:51;4.60;;;4.20;;
357;SDS011;167;47.558;7.602;2023-05-07T01:44:18;4.30;;;4.00;;
357;SDS011;167;47.558;7.602;2023-05-07T01:46:44;4.30;;;3.90;;
357;SDS011;167;47.558;7.602;2023-05-07T01:49:10;4.40;;;4.00;;
357;SDS011;167;47.558;7.602;2023-05-07T01:51:36;6.47;;;4.40;;
357;SDS011;167;47.558;7.602;2023-05-07T01:54:02;4.63;;;4.23;;
357;SDS011;167;47.558;7.602;2023-05-07T01:56:28;4.30;;;4.00;;
357;SDS011;167;47.558;7.602;2023-05-07T01:58:54;5.33;;;4.83;;
357;SDS011;167;47.558;7.602;2023-05-07T02:01:21;4.70;;;4.40;;
357;SDS011;167;47.558;7.602;2023-05-07T02:03:46;4.83;;;4.33;;
357;SDS011;167;47.558;7.602;2023-05-07T02:06:12;4.73;;;4.43;;
357;SDS011;167;47.558;7.602;2023-05-07T02:08:38;4.70;;;4.30;;
357;SDS011;167;47.558;7.602;2023-05-07T02:11:04;5.23;;;4.73;;
357;SDS011;167;47.558;7.602;2023-05-07T02:13:31;4.90;;;4.43;;
357;SDS011;167;47.558;7.602;2023-05-07T02:15:57;6.10;;;4.40;;
357;SDS011;167;47.558;7.602;2023-05-07T02:18:23;4.20;;;4.00;;
357;SDS011;167;47.558;7.602;2023-05-07T02:20:49;4.20;;;4.00;;
357;SDS011;167;47.558;7.602;2023-05-07T02:23:15;5.83;;;4.00;;
357;SDS011;167;47.558;7.602;2023-05-07T02:25:41;3.73;;;3.50;;
357;SDS011;167;47.558;7.602;2023-05-07T02:28:07;4.90;;;4.60;;
357;SDS011;167;47.558;7.602;2023-05-07T02:30:33;5.53;;;5.03;;
357;SDS011;167;47.558;7.602;2023-05-07T02:32:59;5.30;;;4.90;;
357;SDS011;167;47.558;7.602;2023-05-07T02:35:25;4.87;;;4.57;;
357;SDS011;167;47.558;7.602;2023-05-07T02:37:51;4.63;;;4.33;;
357;SDS011;167;47.558;7.602;2023-05-07T02:40:17;4.87;;;4.57;;
357;SDS011;167;47.558;7.602;2023-05-07T02:42:43;4.70;;;4.40;;
357;SDS011;167;47.558;7.602;2023-05-07T02:45:09;4.57;;;4.13;;
357;SDS011;167;47.558;7.602;2023-05-07T02:47:35;5.03;;;4.73;;
357;SDS011;167;47.558;7.602;2023-05-07T02:50:01;5.20;;;4.80;;
357;SDS011;167;47.558;7.602;2023-05-07T02:52:28;5.30;;;4.80;;
357;SDS011;167;47.558;7.602;2023-05-07T02:54:54;5.27;;;4.83;;
357;SDS011;167;47.558;7.602;2023-05-07T02:57:20;5.30;;;4.90;;
357;SDS011;167;47.558;7.602;2023-05-07T02:59:46;4.60;;;4.30;;
357;SDS011;167;47.558;7.602;2023-05-07T03:02:12;4.03;;;3.83;;
357;SDS011;167;47.558;7.602;2023-05-07T03:04:39;5.13;;;4.20;;
357;SDS011;167;47.558;7.602;2023-05-07T03:07:05;4.50;;;4.10;;
357;SDS011;167;47.558;7.602;2023-05-07T03:09:31;4.70;;;4.40;;
357;SDS011;167;47.558;7.602;2023-05-07T03:11:57;4.13;;;3.77;;
357;SDS011;167;47.558;7.602;2023-05-07T03:14:23;4.43;;;4.03;;
357;SDS011;167;47.558;7.602;2023-05-07T03:16:49;6.20;;;5.50;;
357;SDS011;167;47.558;7.602;2023-05-07T03:19:15;5.20;;;4.80;;
357;SDS011;167;47.558;7.602;2023-05-07T03:21:41;5.37;;;4.60;;
357;SDS011;167;47.558;7.602;2023-05-07T03:24:07;5.20;;;4.90;;
357;SDS011;167;47.558;7.602;2023-05-07T03:26:33;4.53;;;4.27;;
357;SDS011;167;47.558;7.602;2023-05-07T03:28:59;5.23;;;4.90;;
357;SDS011;167;47.558;7.602;2023-05-07T03:31:25;4.47;;;4.17;;
357;SDS011;167;47.558;7.602;2023-05-07T03:33:55;4.60;;;4.40;;
357;SDS011;167;47.558;7.602;2023-05-07T03:36:22;5.03;;;4.73;;
357;SDS011;167;47.558;7.602;2023-05-07T03:38:48;4.83;;;4.57;;
357;SDS011;167;47.558;7.602;2023-05-07T03:41:14;4.50;;;4.10;;
357;SDS011;167;47.558;7.602;2023-05-07T03:43:40;4.33;;;3.93;;
357;SDS011;167;47.558;7.602;2023-05-07T03:46:06;7.30;;;4.80;;
357;SDS011;167;47.558;7.602;2023-05-07T03:48:32;4.77;;;4.47;;
357;SDS011;167;47.558;7.602;2023-05-07T03:50:58;5.63;;;5.17;;
357;SDS011;167;47.558;7.602;2023-05-07T03:53:24;5.20;;;4.80;;
357;SDS011;167;47.558;7.602;2023-05-07T03:55:50;4.60;;;4.30;;
357;SDS011;167;47.558;7.602;2023-05-07T03:58:16;5.20;;;4.80;;
357;SDS011;167;47.558;7.602;2023-05-07T04:00:42;4.87;;;4.47;;
357;SDS011;167;47.558;7.602;2023-05-07T04:03:08;4.77;;;4.37;;
357;SDS011;167;47.558;7.602;2023-05-07T04:05:34;4.10;;;3.90;;
357;SDS011;167;47.558;7.602;2023-05-07T04:08:00;4.10;;;3.90;;
357;SDS011;167;47.558;7.602;2023-05-07T04:10:27;4.70;;;4.40;;
357;SDS011;167;47.558;7.602;2023-05-07T04:12:53;5.13;;;4.63;;
357;SDS011;167;47.558;7.602;2023-05-07T04:15:19;4.50;;;4.20;;
357;SDS011;167;47.558;7.602;2023-05-07T04:17:45;7.13;;;4.87;;
357;SDS011;167;47.558;7.602;2023-05-07T04:20:14;5.43;;;4.90;;
357;SDS011;167;47.558;7.602;2023-05-07T04:22:41;5.23;;;4.73;;
357;SDS011;167;47.558;7.602;2023-05-07T04:25:07;4.70;;;4.33;;
357;SDS011;167;47.558;7.602;2023-05-07T04:27:34;5.30;;;4.90;;
357;SDS011;167;47.558;7.602;2023-05-07T04:30:00;4.73;;;4.43;;
357;SDS011;167;47.558;7.602;2023-05-07T04:32:27;4.27;;;4.07;;
357;SDS011;167;47.558;7.602;2023-05-07T04:34:54;4.67;;;4.27;;
357;SDS011;167;47.558;7.602;2023-05-07T04:37:20;4.90;;;4.60;;
357;SDS011;167;47.558;7.602;2023-05-07T04:39:46;7.40;;;3.40;;
357;SDS011;167;47.558;7.602;2023-05-07T04:42:15;4.60;;;4.30;;
357;SDS011;167;47.558;7.602;2023-05-07T04:44:42;3.87;;;3.67;;
357;SDS011;167;47.558;7.602;2023-05-07T04:47:08;3.40;;;3.20;;
357;SDS011;167;47.558;7.602;2023-05-07T04:49:33;4.30;;;3.97;;
357;SDS011;167;47.558;7.602;2023-05-07T04:51:59;5.60;;;4.50;;
357;SDS011;167;47.558;7.602;2023-05-07T04:54:26;4.80;;;4.33;;
357;SDS011;167;47.558;7.602;2023-05-07T04:56:52;4.70;;;4.30;;
357;SDS011;167;47.558;7.602;2023-05-07T04:59:17;3.80;;;3.60;;
357;SDS011;167;47.558;7.602;2023-05-07T05:01:43;4.00;;;3.80;;
357;SDS011;167;47.558;7.602;2023-05-07T05:04:09;4.00;;;3.80;;
357;SDS011;167;47.558;7.602;2023-05-07T05:06:35;4.50;;;4.20;;
357;SDS011;167;47.558;7.602;2023-05-07T05:09:01;3.93;;;3.63;;
357;SDS011;167;47.558;7.602;2023-05-07T05:11:29;4.77;;;4.23;;
357;SDS011;167;47.558;7.602;2023-05-07T05:13:55;4.53;;;4.23;;
357;SDS011;167;47.558;7.602;2023-05-07T05:16:21;4.50;;;4.10;;
357;SDS011;167;47.558;7.602;2023-05-07T05:18:47;5.00;;;4.50;;
357;SDS011;167;47.558;7.602;2023-05-07T05:21:13;4.70;;;4.30;;
357;SDS011;167;47.558;7.602;2023-05-07T05:23:39;4.73;;;4.30;;
357;SDS011;167;47.558;7.602;2023-05-07T05:26:05;5.70;;;5.33;;
357;SDS011;167;47.558;7.602;2023-05-07T05:28:31;4.57;;;4.27;;
357;SDS011;167;47.558;7.602;2023-05-07T05:30:57;4.60;;;4.30;;
357;SDS011;167;47.558;7.602;2023-05-07T05:33:23;4.53;;;4.10;;
357;SDS011;167;47.558;7.602;2023-05-07T05:35:49;4.60;;;4.40;;
357;SDS011;167;47.558;7.602;2023-05-07T05:38:15;5.03;;;4.53;;
357;SDS011;167;47.558;7.602;2023-05-07T05:40:41;4.67;;;4.37;;
357;SDS011;167;47.558;7.602;2023-05-07T05:43:07;5.27;;;4.80;;
357;SDS011;167;47.558;7.602;2023-05-07T05:45:33;4.53;;;4.10;;
357;SDS011;167;47.558;7.602;2023-05-07T05:47:59;4.77;;;4.20;;
357;SDS011;167;47.558;7.602;2023-05-07T05:50:25;3.63;;;3.40;;
357;SDS011;167;47.558;7.602;2023-05-07T05:52:51;4.60;;;4.23;;
357;SDS011;167;47.558;7.602;2023-05-07T05:55:17;4.23;;;4.03;;
357;SDS011;167;47.558;7.602;2023-05-07T05:57:43;4.73;;;4.43;;
357;SDS011;167;47.558;7.602;2023-05-07T06:00:09;4.53;;;4.13;;
357;SDS011;167;47.558;7.602;2023-05-07T06:02:36;4.57;;;4.27;;
357;SDS011;167;47.558;7.602;2023-05-07T06:05:02;4.17;;;3.97;;
357;SDS011;167;47.558;7.602;2023-05-07T06:07:28;5.00;;;4.70;;
357;SDS011;167;47.558;7.602;2023-05-07T06:09:54;4.10;;;3.80;;
357;SDS011;167;47.558;7.602;2023-05-07T06:12:20;4.67;;;4.10;;
357;SDS011;167;47.558;7.602;2023-05-07T06:14:46;4.27;;;3.87;;
357;SDS011;167;47.558;7.602;2023-05-07T06:17:12;3.63;;;3.43;;
357;SDS011;167;47.558;7.602;2023-05-07T06:19:38;4.57;;;4.27;;
357;SDS011;167;47.558;7.602;2023-05-07T06:22:04;4.63;;;4.33;;
357;SDS011;167;47.558;7.602;2023-05-07T06:24:30;4.70;;;4.40;;
357;SDS011;167;47.558;7.602;2023-05-07T06:26:56;4.30;;;3.90;;
357;SDS011;167;47.558;7.602;2023-05-07T06:29:23;4.23;;;3.93;;
357;SDS011;167;47.558;7.602;2023-05-07T06:31:50;4.67;;;4.27;;
357;SDS011;167;47.558;7.602;2023-05-07T06:34:16;3.37;;;3.17;;
357;SDS011;167;47.558;7.602;2023-05-07T06:36:42;4.00;;;3.80;;
357;SDS011;167;47.558;7.602;2023-05-07T06:39:08;4.60;;;3.27;;
357;SDS011;167;47.558;7.602;2023-05-07T06:41:34;3.77;;;3.57;;
357;SDS011;167;47.558;7.602;2023-05-07T06:44:01;3.80;;;3.60;;
357;SDS011;167;47.558;7.602;2023-05-07T06:46:27;3.17;;;2.97;;
357;SDS011;167;47.558;7.602;2023-05-07T06:48:53;3.10;;;3.00;;
357;SDS011;167;47.558;7.602;2023-05-07T06:51:19;3.33;;;3.20;;
357;SDS011;167;47.558;7.602;2023-05-07T06:53:45;3.10;;;3.00;;
357;SDS011;167;47.558;7.602;2023-05-07T06:56:11;3.43;;;3.20;;
357;SDS011;167;47.558;7.602;2023-05-07T06:58:37;3.00;;;2.80;;
357;SDS011;167;47.558;7.602;2023-05-07T07:01:03;3.57;;;3.30;;
357;SDS011;167;47.558;7.602;2023-05-07T07:03:29;2.77;;;2.57;;
357;SDS011;167;47.558;7.602;2023-05-07T07:05:55;3.10;;;2.67;;
357;SDS011;167;47.558;7.602;2023-05-07T07:08:21;2.73;;;2.63;;
357;SDS011;167;47.558;7.602;2023-05-07T07:10:47;3.00;;;2.80;;
357;SDS011;167;47.558;7.602;2023-05-07T07:13:14;3.20;;;2.90;;
357;SDS011;167;47.558;7.602;2023-05-07T07:15:40;3.20;;;3.00;;
357;SDS011;167;47.558;7.602;2023-05-07T07:18:06;3.20;;;3.00;;
357;SDS011;167;47.558;7.602;2023-05-07T07:20:32;3.17;;;3.00;;
357;SDS011;167;47.558;7.602;2023-05-07T07:22:58;2.20;;;2.10;;
357;SDS011;167;47.558;7.602;2023-05-07T07:25:24;2.00;;;1.90;;
357;SDS011;167;47.558;7.602;2023-05-07T07:27:50;2.37;;;2.27;;
357;SDS011;167;47.558;7.602;2023-05-07T07:30:16;2.70;;;2.50;;
357;SDS011;167;47.558;7.602;2023-05-07T07:32:42;2.13;;;2.07;;
357;SDS011;167;47.558;7.602;2023-05-07T07:35:08;2.17;;;2.07;;
357;SDS011;167;47.558;7.602;2023-05-07T07:37:34;2.60;;;2.50;;
357;SDS011;167;47.558;7.602;2023-05-07T07:40:00;2.50;;;2.30;;
357;SDS011;167;47.558;7.602;2023-05-07T07:42:26;2.03;;;2.03;;
357;SDS011;167;47.558;7.602;2023-05-07T07:44:54;2.37;;;2.20;;
357;SDS011;167;47.558;7.602;2023-05-07T07:47:20;2.50;;;2.40;;
357;SDS011;167;47.558;7.602;2023-05-07T07:49:46;1.83;;;1.73;;
357;SDS011;167;47.558;7.602;2023-05-07T07:52:11;1.87;;;1.77;;
357;SDS011;167;47.558;7.602;2023-05-07T07:54:37;1.60;;;1.50;;
357;SDS011;167;47.558;7.602;2023-05-07T07:57:03;2.73;;;2.63;;
357;SDS011;167;47.558;7.602;2023-05-07T07:59:29;2.20;;;2.10;;
357;SDS011;167;47.558;7.602;2023-05-07T08:01:55;3.07;;;2.23;;
357;SDS011;167;47.558;7.602;2023-05-07T08:04:22;2.17;;;2.07;;
357;SDS011;167;47.558;7.602;2023-05-07T08:06:48;1.77;;;1.73;;
357;SDS011;167;47.558;7.602;2023-05-07T08:09:14;2.40;;;2.20;;
357;SDS011;167;47.558;7.602;2023-05-07T08:11:40;2.53;;;2.33;;
357;SDS011;167;47.558;7.602;2023-05-07T08:14:06;2.17;;;2.07;;
357;SDS011;167;47.558;7.602;2023-05-07T08:16:32;2.13;;;2.03;;
357;SDS011;167;47.558;7.602;2023-05-07T08:18:58;1.80;;;1.80;;
357;SDS011;167;47.558;7.602;2023-05-07T08:21:24;2.20;;;2.10;;
357;SDS011;167;47.558;7.602;2023-05-07T08:23:52;2.20;;;2.10;;
357;SDS011;167;47.558;7.602;2023-05-07T08:26:18;2.23;;;1.93;;
357;SDS011;167;47.558;7.602;2023-05-07T08:28:44;2.10;;;1.90;;
357;SDS011;167;47.558;7.602;2023-05-07T08:31:10;1.83;;;1.73;;
357;SDS011;167;47.558;7.602;2023-05-07T08:33:36;2.00;;;1.90;;
357;SDS011;167;47.558;7.602;2023-05-07T08:36:03;1.60;;;1.60;;
357;SDS011;167;47.558;7.602;2023-05-07T08:38:29;2.07;;;1.97;;
357;SDS011;167;47.558;7.602;2023-05-07T08:40:55;2.10;;;2.00;;
357;SDS011;167;47.558;7.602;2023-05-07T08:43:21;1.87;;;1.73;;
357;SDS011;167;47.558;7.602;2023-05-07T08:45:47;1.70;;;1.70;;
357;SDS011;167;47.558;7.602;2023-05-07T08:48:15;1.93;;;1.93;;
357;SDS011;167;47.558;7.602;2023-05-07T08:50:41;1.90;;;1.80;;
357;SDS011;167;47.558;7.602;2023-05-07T08:53:07;2.37;;;2.10;;
357;SDS011;167;47.558;7.602;2023-05-07T08:55:34;2.23;;;2.13;;
357;SDS011;167;47.558;7.602;2023-05-07T08:58:00;1.87;;;1.77;;
357;SDS011;167;47.558;7.602;2023-05-07T09:00:26;3.00;;;2.80;;
357;SDS011;167;47.558;7.602;2023-05-07T09:02:53;2.20;;;2.10;;
357;SDS011;167;47.558;7.602;2023-05-07T09:05:19;1.97;;;1.97;;
357;SDS011;167;47.558;7.602;2023-05-07T09:07:46;2.13;;;2.03;;
357;SDS011;167;47.558;7.602;2023-05-07T09:10:12;2.10;;;2.00;;
357;SDS011;167;47.558;7.602;2023-05-07T09:12:39;2.23;;;2.13;;
357;SDS011;167;47.558;7.602;2023-05-07T09:15:06;2.40;;;2.30;;
357;SDS011;167;47.558;7.602;2023-05-07T09:17:32;1.93;;;1.93;;
357;SDS011;167;47.558;7.602;2023-05-07T09:20:05;4.53;;;2.40;;
357;SDS011;167;47.558;7.602;2023-05-07T09:22:32;4.00;;;2.30;;
357;SDS011;167;47.558;7.602;2023-05-07T09:24:58;2.43;;;2.33;;
357;SDS011;167;47.558;7.602;2023-05-07T09:27:24;2.37;;;2.10;;
357;SDS011;167;47.558;7.602;2023-05-07T09:29:51;2.73;;;2.63;;
357;SDS011;167;47.558;7.602;2023-05-07T09:32:17;2.47;;;2.37;;
357;SDS011;167;47.558;7.602;2023-05-07T09:34:43;2.70;;;2.50;;
357;SDS011;167;47.558;7.602;2023-05-07T09:37:10;2.67;;;2.57;;
357;SDS011;167;47.558;7.602;2023-05-07T09:39:44;2.50;;;2.40;;
357;SDS011;167;47.558;7.602;2023-05-07T09:42:11;2.00;;;1.90;;
357;SDS011;167;47.558;7.602;2023-05-07T09:44:37;2.27;;;2.17;;
357;SDS011;167;47.558;7.602;2023-05-07T09:47:04;2.17;;;2.07;;
357;SDS011;167;47.558;7.602;2023-05-07T09:49:30;2.10;;;2.00;;
357;SDS011;167;47.558;7.602;2023-05-07T09:51:59;2.07;;;1.97;;
357;SDS011;167;47.558;7.602;2023-05-07T09:54:26;1.87;;;1.77;;
357;SDS011;167;47.558;7.602;2023-05-07T09:56:55;1.60;;;1.60;;
357;SDS011;167;47.558;7.602;2023-05-07T09:59:22;1.60;;;1.60;;
357;SDS011;167;47.558;7.602;2023-05-07T10:01:48;1.60;;;1.50;;
357;SDS011;167;47.558;7.602;2023-05-07T10:04:15;1.57;;;1.57;;
357;SDS011;167;47.558;7.602;2023-05-07T10:06:40;1.80;;;1.70;;
357;SDS011;167;47.558;7.602;2023-05-07T10:09:07;2.13;;;2.03;;
357;SDS011;167;47.558;7.602;2023-05-07T10:11:33;1.80;;;1.70;;
357;SDS011;167;47.558;7.602;2023-05-07T10:14:00;1.63;;;1.53;;
357;SDS011;167;47.558;7.602;2023-05-07T10:16:27;2.10;;;1.90;;
357;SDS011;167;47.558;7.602;2023-05-07T10:18:53;3.40;;;3.20;;
357;SDS011;167;47.558;7.602;2023-05-07T10:21:21;2.13;;;1.80;;
357;SDS011;167;47.558;7.602;2023-05-07T10:23:51;1.87;;;1.77;;
357;SDS011;167;47.558;7.602;2023-05-07T10:26:17;2.13;;;1.53;;
357;SDS011;167;47.558;7.602;2023-05-07T10:28:45;1.43;;;1.33;;
357;SDS011;167;47.558;7.602;2023-05-07T10:31:17;1.97;;;1.33;;
357;SDS011;167;47.558;7.602;2023-05-07T10:33:45;2.50;;;2.40;;
357;SDS011;167;47.558;7.602;2023-05-07T10:36:12;1.53;;;1.53;;
357;SDS011;167;47.558;7.602;2023-05-07T10:38:38;3.17;;;3.07;;
357;SDS011;167;47.558;7.602;2023-05-07T10:41:05;2.10;;;2.03;;
357;SDS011;167;47.558;7.602;2023-05-07T10:43:41;1.30;;;1.20;;
357;SDS011;167;47.558;7.602;2023-05-07T10:51:24;0.90;;;0.90;;
357;SDS011;167;47.558;7.602;2023-05-07T10:54:16;1.20;;;1.10;;
357;SDS011;167;47.558;7.602;2023-05-07T10:56:36;1.17;;;1.17;;
357;SDS011;167;47.558;7.602;2023-05-07T11:01:53;1.17;;;1.10;;
357;SDS011;167;47.558;7.602;2023-05-07T11:04:19;1.00;;;1.00;;
357;SDS011;167;47.558;7.602;2023-05-07T11:15:05;1.10;;;1.10;;
357;SDS011;167;47.558;7.602;2023-05-07T11:17:32;1.10;;;1.10;;
357;SDS011;167;47.558;7.602;2023-05-07T11:19:59;1.60;;;1.60;;
357;SDS011;167;47.558;7.602;2023-05-07T11:25:01;1.50;;;1.40;;
357;SDS011;167;47.558;7.602;2023-05-07T11:27:28;1.53;;;1.43;;
357;SDS011;167;47.558;7.602;2023-05-07T11:29:54;1.73;;;1.10;;
357;SDS011;167;47.558;7.602;2023-05-07T11:32:27;2.77;;;1.60;;
357;SDS011;167;47.558;7.602;2023-05-07T11:34:54;1.43;;;1.33;;
357;SDS011;167;47.558;7.602;2023-05-07T11:37:23;2.13;;;1.70;;
357;SDS011;167;47.558;7.602;2023-05-07T11:39:49;2.17;;;2.00;;
357;SDS011;167;47.558;7.602;2023-05-07T11:42:32;1.53;;;1.50;;
357;SDS011;167;47.558;7.602;2023-05-07T11:44:59;1.50;;;1.50;;
357;SDS011;167;47.558;7.602;2023-05-07T11:47:25;1.93;;;1.83;;
357;SDS011;167;47.558;7.602;2023-05-07T11:49:52;1.83;;;1.73;;
357;SDS011;167;47.558;7.602;2023-05-07T11:52:18;1.43;;;1.33;;
357;SDS011;167;47.558;7.602;2023-05-07T11:54:51;1.70;;;1.60;;
357;SDS011;167;47.558;7.602;2023-05-07T11:57:18;1.83;;;1.73;;
357;SDS011;167;47.558;7.602;2023-05-07T11:59:45;2.93;;;1.63;;
357;SDS011;167;47.558;7.602;2023-05-07T12:02:14;1.70;;;1.60;;
357;SDS011;167;47.558;7.602;2023-05-07T12:04:41;3.00;;;1.90;;
357;SDS011;167;47.558;7.602;2023-05-07T12:07:13;1.73;;;1.60;;
357;SDS011;167;47.558;7.602;2023-05-07T12:09:40;1.30;;;1.30;;
357;SDS011;167;47.558;7.602;2023-05-07T12:12:06;1.80;;;1.70;;
357;SDS011;167;47.558;7.602;2023-05-07T12:14:32;1.17;;;1.10;;
357;SDS011;167;47.558;7.602;2023-05-07T12:17:01;1.33;;;1.33;;
357;SDS011;167;47.558;7.602;2023-05-07T12:19:28;2.30;;;1.50;;
357;SDS011;167;47.558;7.602;2023-05-07T12:21:54;1.90;;;1.27;;
357;SDS011;167;47.558;7.602;2023-05-07T12:24:21;1.53;;;1.43;;
357;SDS011;167;47.558;7.602;2023-05-07T12:26:47;2.20;;;2.07;;
357;SDS011;167;47.558;7.602;2023-05-07T12:29:13;1.50;;;1.40;;
357;SDS011;167;47.558;7.602;2023-05-07T12:31:40;2.50;;;1.83;;
357;SDS011;167;47.558;7.602;2023-05-07T12:34:06;1.60;;;1.50;;
357;SDS011;167;47.558;7.602;2023-05-07T12:36:39;1.37;;;1.30;;
357;SDS011;167;47.558;7.602;2023-05-07T12:39:08;1.40;;;1.20;;
357;SDS011;167;47.558;7.602;2023-05-07T12:41:54;1.50;;;1.40;;
357;SDS011;167;47.558;7.602;2023-05-07T12:44:23;2.93;;;1.20;;
357;SDS011;167;47.558;7.602;2023-05-07T12:46:49;1.90;;;1.80;;
357;SDS011;167;47.558;7.602;2023-05-07T12:49:15;2.27;;;2.17;;
357;SDS011;167;47.558;7.602;2023-05-07T12:51:42;1.73;;;1.40;;
357;SDS011;167;47.558;7.602;2023-05-07T12:54:09;1.47;;;1.40;;
357;SDS011;167;47.558;7.602;2023-05-07T12:56:37;1.53;;;1.43;;
357;SDS011;167;47.558;7.602;2023-05-07T12:59:03;2.50;;;1.53;;
357;SDS011;167;47.558;7.602;2023-05-07T13:01:30;2.50;;;1.70;;
357;SDS011;167;47.558;7.602;2023-05-07T13:03:56;2.23;;;1.73;;
357;SDS011;167;47.558;7.602;2023-05-07T13:06:25;1.30;;;1.20;;
357;SDS011;167;47.558;7.602;2023-05-07T13:08:52;1.63;;;1.53;;
357;SDS011;167;47.558;7.602;2023-05-07T13:11:18;1.70;;;1.60;;
357;SDS011;167;47.558;7.602;2023-05-07T13:13:45;1.53;;;1.43;;
357;SDS011;167;47.558;7.602;2023-05-07T13:16:11;1.27;;;1.27;;
357;SDS011;167;47.558;7.602;2023-05-07T13:18:37;1.77;;;1.67;;
357;SDS011;167;47.558;7.602;2023-05-07T13:21:04;1.37;;;1.27;;
357;SDS011;167;47.558;7.602;2023-05-07T13:23:30;1.60;;;1.20;;
357;SDS011;167;47.558;7.602;2023-05-07T13:25:56;1.50;;;0.90;;
357;SDS011;167;47.558;7.602;2023-05-07T13:28:22;1.00;;;1.00;;
357;SDS011;167;47.558;7.602;2023-05-07T13:30:48;1.37;;;1.13;;
357;SDS011;167;47.558;7.602;2023-05-07T13:33:16;1.43;;;1.33;;
357;SDS011;167;47.558;7.602;2023-05-07T13:35:43;1.53;;;1.17;;
357;SDS011;167;47.558;7.602;2023-05-07T13:38:08;1.70;;;1.10;;
357;SDS011;167;47.558;7.602;2023-05-07T13:40:35;1.47;;;1.37;;
357;SDS011;167;47.558;7.602;2023-05-07T13:43:00;1.30;;;1.30;;
357;SDS011;167;47.558;7.602;2023-05-07T13:45:27;1.10;;;1.10;;
357;SDS011;167;47.558;7.602;2023-05-07T13:47:54;1.30;;;1.30;;
357;SDS011;167;47.558;7.602;2023-05-07T13:50:20;1.30;;;1.30;;
357;SDS011;167;47.558;7.602;2023-05-07T13:52:46;1.40;;;1.40;;
357;SDS011;167;47.558;7.602;2023-05-07T13:55:16;1.67;;;1.57;;
357;SDS011;167;47.558;7.602;2023-05-07T13:57:42;1.50;;;1.40;;
357;SDS011;167;47.558;7.602;2023-05-07T14:00:09;1.80;;;1.50;;
357;SDS011;167;47.558;7.602;2023-05-07T14:02:35;1.73;;;1.20;;
357;SDS011;167;47.558;7.602;2023-05-07T14:05:01;1.40;;;1.30;;
357;SDS011;167;47.558;7.602;2023-05-07T14:07:27;1.63;;;1.53;;
357;SDS011;167;47.558;7.602;2023-05-07T14:09:53;2.10;;;1.80;;
357;SDS011;167;47.558;7.602;2023-05-07T14:12:19;2.47;;;1.57;;
357;SDS011;167;47.558;7.602;2023-05-07T14:14:45;2.00;;;1.40;;
357;SDS011;167;47.558;7.602;2023-05-07T14:17:11;1.27;;;1.23;;
357;SDS011;167;47.558;7.602;2023-05-07T14:19:37;1.27;;;1.27;;
357;SDS011;167;47.558;7.602;2023-05-07T14:22:03;1.30;;;1.20;;
357;SDS011;167;47.558;7.602;2023-05-07T14:24:29;1.60;;;1.50;;
357;SDS011;167;47.558;7.602;2023-05-07T14:26:55;1.43;;;1.33;;
357;SDS011;167;47.558;7.602;2023-05-07T14:29:21;1.03;;;1.03;;
357;SDS011;167;47.558;7.602;2023-05-07T14:31:47;1.63;;;1.07;;
357;SDS011;167;47.558;7.602;2023-05-07T14:34:13;1.27;;;1.17;;
357;SDS011;167;47.558;7.602;2023-05-07T14:36:39;1.40;;;1.40;;
357;SDS011;167;47.558;7.602;2023-05-07T14:39:05;1.73;;;1.73;;
357;SDS011;167;47.558;7.602;2023-05-07T14:41:31;1.00;;;1.00;;
357;SDS011;167;47.558;7.602;2023-05-07T14:43:58;1.43;;;1.40;;
357;SDS011;167;47.558;7.602;2023-05-07T14:46:24;1.87;;;1.63;;
357;SDS011;167;47.558;7.602;2023-05-07T14:48:50;1.70;;;1.60;;
357;SDS011;167;47.558;7.602;2023-05-07T14:51:16;2.57;;;1.47;;
357;SDS011;167;47.558;7.602;2023-05-07T14:53:42;1.40;;;1.40;;
357;SDS011;167;47.558;7.602;2023-05-07T14:56:08;1.53;;;1.43;;
357;SDS011;167;47.558;7.602;2023-05-07T14:58:34;1.47;;;1.37;;
357;SDS011;167;47.558;7.602;2023-05-07T15:01:01;2.87;;;1.40;;
357;SDS011;167;47.558;7.602;2023-05-07T15:03:27;1.20;;;1.20;;
357;SDS011;167;47.558;7.602;2023-05-07T15:05:53;1.20;;;1.20;;
357;SDS011;167;47.558;7.602;2023-05-07T15:08:19;0.67;;;0.67;;
357;SDS011;167;47.558;7.602;2023-05-07T15:10:45;1.00;;;1.00;;
357;SDS011;167;47.558;7.602;2023-05-07T15:13:11;0.90;;;0.90;;
357;SDS011;167;47.558;7.602;2023-05-07T15:15:38;0.93;;;0.93;;
357;SDS011;167;47.558;7.602;2023-05-07T15:18:04;1.17;;;1.17;;
357;SDS011;167;47.558;7.602;2023-05-07T15:20:30;1.77;;;1.10;;
357;SDS011;167;47.558;7.602;2023-05-07T15:22:57;1.90;;;1.60;;
357;SDS011;167;47.558;7.602;2023-05-07T15:25:23;0.90;;;0.90;;
357;SDS011;167;47.558;7.602;2023-05-07T15:27:49;1.30;;;1.30;;
357;SDS011;167;47.558;7.602;2023-05-07T15:30:15;1.03;;;1.03;;
357;SDS011;167;47.558;7.602;2023-05-07T15:32:41;0.87;;;0.87;;
357;SDS011;167;47.558;7.602;2023-05-07T15:35:07;1.27;;;0.80;;
357;SDS011;167;47.558;7.602;2023-05-07T15:37:33;0.90;;;0.87;;
357;SDS011;167;47.558;7.602;2023-05-07T15:39:59;1.20;;;1.20;;
357;SDS011;167;47.558;7.602;2023-05-07T15:42:27;3.00;;;1.60;;
357;SDS011;167;47.558;7.602;2023-05-07T15:44:53;1.40;;;1.33;;
357;SDS011;167;47.558;7.602;2023-05-07T15:47:19;1.60;;;1.50;;
357;SDS011;167;47.558;7.602;2023-05-07T15:49:45;1.40;;;1.30;;
357;SDS011;167;47.558;7.602;2023-05-07T15:52:11;0.90;;;0.90;;
357;SDS011;167;47.558;7.602;2023-05-07T15:54:41;1.57;;;1.03;;
357;SDS011;167;47.558;7.602;2023-05-07T15:57:07;1.70;;;1.13;;
357;SDS011;167;47.558;7.602;2023-05-07T15:59:34;0.97;;;0.97;;